sensor_id;sensor_type;location;lat;lon;timestamp;pressure;altitude;pressure_sealevel;temperature;humidity
32759;BME280;19125;52.360;9.974;2023-06-22T00:00:46;85435.25;;;-145.17;52.00
32759;BME280;19125;52.360;9.974;2023-06-22T00:03:12;85514.59;;;-145.17;52.05
32759;BME280;19125;52.360;9.974;2023-06-22T00:05:37;85453.09;;;-145.17;51.99
32759;BME280;19125;52.360;9.974;2023-06-22T00:08:03;85470.97;;;-145.17;52.09
32759;BME280;19125;52.360;9.974;2023-06-22T00:10:30;85461.03;;;-145.17;51.80
32759;BME280;19125;52.360;9.974;2023-06-22T00:12:55;85472.94;;;-145.17;51.95
32759;BME280;19125;52.360;9.974;2023-06-22T00:15:20;85492.78;;;-145.17;52.32
32759;BME280;19125;52.360;9.974;2023-06-22T00:17:46;85516.59;;;-145.17;52.39
32759;BME280;19125;52.360;9.974;2023-06-22T00:20:11;85536.44;;;-145.17;52.30
32759;BME280;19125;52.360;9.974;2023-06-22T00:22:37;85492.78;;;-145.17;52.35
32759;BME280;19125;52.360;9.974;2023-06-22T00:25:07;85542.38;;;-145.17;52.83
32759;BME280;19125;52.360;9.974;2023-06-22T00:27:32;85512.63;;;-145.17;52.87
32759;BME280;19125;52.360;9.974;2023-06-22T00:29:58;85540.41;;;-145.17;53.13
32759;BME280;19125;52.360;9.974;2023-06-22T00:32:23;85546.34;;;-145.17;53.14
32759;BME280;19125;52.360;9.974;2023-06-22T00:34:48;85576.13;;;-145.17;53.15
32759;BME280;19125;52.360;9.974;2023-06-22T00:37:15;85588.03;;;-145.17;53.64
32759;BME280;19125;52.360;9.974;2023-06-22T00:39:41;85613.81;;;-145.17;53.46
32759;BME280;19125;52.360;9.974;2023-06-22T00:42:06;85607.84;;;-145.17;53.80
32759;BME280;19125;52.360;9.974;2023-06-22T00:44:31;85566.19;;;-145.17;53.57
32759;BME280;19125;52.360;9.974;2023-06-22T00:46:57;85621.75;;;-145.17;53.72
32759;BME280;19125;52.360;9.974;2023-06-22T00:49:23;85639.59;;;-145.17;53.80
32759;BME280;19125;52.360;9.974;2023-06-22T00:51:48;85631.66;;;-145.17;53.75
32759;BME280;19125;52.360;9.974;2023-06-22T00:54:14;85582.06;;;-145.17;53.58
32759;BME280;19125;52.360;9.974;2023-06-22T00:56:40;85597.94;;;-145.17;53.51
32759;BME280;19125;52.360;9.974;2023-06-22T00:59:06;85609.84;;;-145.17;53.40
32759;BME280;19125;52.360;9.974;2023-06-22T01:01:31;85570.16;;;-145.17;53.36
32759;BME280;19125;52.360;9.974;2023-06-22T01:03:57;85584.06;;;-145.17;53.28
32759;BME280;19125;52.360;9.974;2023-06-22T01:06:30;85603.88;;;-145.17;53.12
32759;BME280;19125;52.360;9.974;2023-06-22T01:09:15;85593.97;;;-145.17;53.14
32759;BME280;19125;52.360;9.974;2023-06-22T01:11:48;85588.03;;;-145.17;53.19
32759;BME280;19125;52.360;9.974;2023-06-22T01:14:20;85590.00;;;-145.17;53.23
32759;BME280;19125;52.360;9.974;2023-06-22T01:16:48;85619.75;;;-145.17;53.26
32759;BME280;19125;52.360;9.974;2023-06-22T01:19:29;85649.53;;;-145.17;53.60
32759;BME280;19125;52.360;9.974;2023-06-22T01:22:00;85667.38;;;-145.17;53.75
32759;BME280;19125;52.360;9.974;2023-06-22T01:24:30;85681.28;;;-145.17;53.98
32759;BME280;19125;52.360;9.974;2023-06-22T01:29:50;85756.66;;;-145.17;54.51
32759;BME280;19125;52.360;9.974;2023-06-22T01:32:17;85788.41;;;-145.17;54.48
32759;BME280;19125;52.360;9.974;2023-06-22T01:34:43;85814.22;;;-145.17;54.92
32759;BME280;19125;52.360;9.974;2023-06-22T01:37:10;85881.69;;;-145.17;55.24
32759;BME280;19125;52.360;9.974;2023-06-22T01:39:36;85889.63;;;-145.17;55.64
32759;BME280;19125;52.360;9.974;2023-06-22T01:42:02;85945.16;;;-145.17;55.56
32759;BME280;19125;52.360;9.974;2023-06-22T01:44:28;85925.31;;;-145.17;55.67
32759;BME280;19125;52.360;9.974;2023-06-22T01:46:55;85897.53;;;-145.17;55.40
32759;BME280;19125;52.360;9.974;2023-06-22T01:49:20;85913.41;;;-145.17;55.44
32759;BME280;19125;52.360;9.974;2023-06-22T01:51:46;85885.66;;;-145.17;55.41
32759;BME280;19125;52.360;9.974;2023-06-22T01:54:11;85945.16;;;-145.17;55.28
32759;BME280;19125;52.360;9.974;2023-06-22T01:56:37;85933.25;;;-145.17;55.47
32759;BME280;19125;52.360;9.974;2023-06-22T01:59:13;85992.78;;;-145.17;55.52
32759;BME280;19125;52.360;9.974;2023-06-22T02:02:07;85903.50;;;-145.17;55.60
32759;BME280;19125;52.360;9.974;2023-06-22T02:04:38;85929.28;;;-145.17;55.64
32759;BME280;19125;52.360;9.974;2023-06-22T02:07:09;85941.19;;;-145.17;55.58
32759;BME280;19125;52.360;9.974;2023-06-22T02:09:38;85963.03;;;-145.17;55.62
32759;BME280;19125;52.360;9.974;2023-06-22T02:12:08;85933.25;;;-145.17;55.53
32759;BME280;19125;52.360;9.974;2023-06-22T02:14:36;85941.19;;;-145.17;55.46
32759;BME280;19125;52.360;9.974;2023-06-22T02:17:02;85949.13;;;-145.17;55.54
32759;BME280;19125;52.360;9.974;2023-06-22T02:19:27;85937.22;;;-145.17;55.41
32759;BME280;19125;52.360;9.974;2023-06-22T02:21:58;85911.44;;;-145.17;55.34
32759;BME280;19125;52.360;9.974;2023-06-22T02:24:23;85947.16;;;-145.17;55.49
32759;BME280;19125;52.360;9.974;2023-06-22T02:26:49;85963.03;;;-145.17;55.56
32759;BME280;19125;52.360;9.974;2023-06-22T02:29:14;85968.97;;;-145.17;55.45
32759;BME280;19125;52.360;9.974;2023-06-22T02:31:39;85988.81;;;-145.17;55.56
32759;BME280;19125;52.360;9.974;2023-06-22T02:34:05;85986.84;;;-145.17;55.60
32759;BME280;19125;52.360;9.974;2023-06-22T02:36:30;85996.75;;;-145.17;55.92
32759;BME280;19125;52.360;9.974;2023-06-22T02:38:56;85988.81;;;-145.17;55.48
32759;BME280;19125;52.360;9.974;2023-06-22T02:41:26;86048.34;;;-145.17;56.08
32759;BME280;19125;52.360;9.974;2023-06-22T02:43:51;86012.63;;;-145.17;56.01
32759;BME280;19125;52.360;9.974;2023-06-22T02:46:16;86026.53;;;-145.17;55.90
32759;BME280;19125;52.360;9.974;2023-06-22T02:48:42;86072.16;;;-145.17;56.06
32759;BME280;19125;52.360;9.974;2023-06-22T02:51:07;86062.25;;;-145.17;56.07
32759;BME280;19125;52.360;9.974;2023-06-22T02:53:33;86056.28;;;-145.17;56.36
32759;BME280;19125;52.360;9.974;2023-06-22T02:56:00;86048.34;;;-145.17;56.27
32759;BME280;19125;52.360;9.974;2023-06-22T02:58:26;86084.06;;;-145.17;56.43
32759;BME280;19125;52.360;9.974;2023-06-22T03:00:52;86090.03;;;-145.17;56.39
32759;BME280;19125;52.360;9.974;2023-06-22T03:03:18;86099.94;;;-145.17;56.67
32759;BME280;19125;52.360;9.974;2023-06-22T03:05:44;86064.22;;;-145.17;56.45
32759;BME280;19125;52.360;9.974;2023-06-22T03:08:09;86064.22;;;-145.17;56.48
32759;BME280;19125;52.360;9.974;2023-06-22T03:10:35;86048.34;;;-145.17;56.50
32759;BME280;19125;52.360;9.974;2023-06-22T03:13:00;86076.13;;;-145.17;56.57
32759;BME280;19125;52.360;9.974;2023-06-22T03:15:25;86107.88;;;-145.17;56.59
32759;BME280;19125;52.360;9.974;2023-06-22T03:17:51;86107.88;;;-145.17;56.43
32759;BME280;19125;52.360;9.974;2023-06-22T03:20:16;86084.06;;;-145.17;56.74
32759;BME280;19125;52.360;9.974;2023-06-22T03:22:42;86095.97;;;-145.17;56.67
32759;BME280;19125;52.360;9.974;2023-06-22T03:25:09;86024.53;;;-145.17;56.37
32759;BME280;19125;52.360;9.974;2023-06-22T03:27:41;86028.50;;;-145.17;55.93
32759;BME280;19125;52.360;9.974;2023-06-22T03:30:09;85947.16;;;-145.17;55.73
32759;BME280;19125;52.360;9.974;2023-06-22T03:32:35;85913.41;;;-145.17;55.25
32759;BME280;19125;52.360;9.974;2023-06-22T03:35:01;85913.41;;;-145.17;55.20
32759;BME280;19125;52.360;9.974;2023-06-22T03:37:28;85871.75;;;-145.17;55.05
32759;BME280;19125;52.360;9.974;2023-06-22T03:39:53;85792.38;;;-145.17;54.72
32759;BME280;19125;52.360;9.974;2023-06-22T03:42:19;85742.78;;;-145.17;53.94
32759;BME280;19125;52.360;9.974;2023-06-22T03:44:44;85657.47;;;-145.17;53.37
32759;BME280;19125;52.360;9.974;2023-06-22T03:47:09;85619.75;;;-145.17;52.87
32759;BME280;19125;52.360;9.974;2023-06-22T03:49:35;85599.94;;;-145.17;53.17
32759;BME280;19125;52.360;9.974;2023-06-22T03:52:02;85582.06;;;-145.17;52.80
32759;BME280;19125;52.360;9.974;2023-06-22T03:54:29;85558.25;;;-145.17;52.69
32759;BME280;19125;52.360;9.974;2023-06-22T03:56:54;85492.78;;;-145.17;52.00
32759;BME280;19125;52.360;9.974;2023-06-22T03:59:20;85387.63;;;-145.17;51.08
32759;BME280;19125;52.360;9.974;2023-06-22T04:01:45;85276.53;;;-145.17;50.00
32759;BME280;19125;52.360;9.974;2023-06-22T04:04:11;85193.22;;;-145.17;48.70
32759;BME280;19125;52.360;9.974;2023-06-22T04:06:37;85099.97;;;-145.17;47.77
32759;BME280;19125;52.360;9.974;2023-06-22T04:09:03;84988.88;;;-145.17;46.82
32759;BME280;19125;52.360;9.974;2023-06-22T04:11:28;84917.47;;;-145.17;45.96
32759;BME280;19125;52.360;9.974;2023-06-22T04:13:53;84857.94;;;-145.17;45.54
32759;BME280;19125;52.360;9.974;2023-06-22T04:16:19;84814.31;;;-145.17;45.07
32759;BME280;19125;52.360;9.974;2023-06-22T04:18:44;84792.47;;;-145.17;44.73
32759;BME280;19125;52.360;9.974;2023-06-22T04:21:10;84736.94;;;-145.17;44.12
32759;BME280;19125;52.360;9.974;2023-06-22T04:23:35;84806.38;;;-145.17;44.16
32759;BME280;19125;52.360;9.974;2023-06-22T04:26:01;84915.47;;;-145.17;45.19
32759;BME280;19125;52.360;9.974;2023-06-22T04:28:26;84996.81;;;-145.17;46.16
32759;BME280;19125;52.360;9.974;2023-06-22T04:30:51;85066.25;;;-145.17;47.29
32759;BME280;19125;52.360;9.974;2023-06-22T04:33:17;85167.41;;;-145.17;47.96
32759;BME280;19125;52.360;9.974;2023-06-22T04:35:45;85215.03;;;-145.17;48.84
32759;BME280;19125;52.360;9.974;2023-06-22T04:38:12;85254.72;;;-145.17;49.42
32759;BME280;19125;52.360;9.974;2023-06-22T04:40:39;85318.19;;;-145.17;50.03
32759;BME280;19125;52.360;9.974;2023-06-22T04:43:04;85298.34;;;-145.17;50.34
32759;BME280;19125;52.360;9.974;2023-06-22T04:45:31;85314.22;;;-145.17;50.65
32759;BME280;19125;52.360;9.974;2023-06-22T04:47:57;85324.16;;;-145.17;50.63
32759;BME280;19125;52.360;9.974;2023-06-22T04:50:23;85308.28;;;-145.17;50.65
32759;BME280;19125;52.360;9.974;2023-06-22T04:52:49;85314.22;;;-145.17;50.73
32759;BME280;19125;52.360;9.974;2023-06-22T04:55:14;85288.44;;;-145.17;50.39
32759;BME280;19125;52.360;9.974;2023-06-22T04:57:44;85238.84;;;-145.17;50.30
32759;BME280;19125;52.360;9.974;2023-06-22T05:00:17;85209.06;;;-145.17;50.32
32759;BME280;19125;52.360;9.974;2023-06-22T05:02:43;85232.88;;;-145.17;50.24
32759;BME280;19125;52.360;9.974;2023-06-22T05:05:10;85250.75;;;-145.17;50.76
32759;BME280;19125;52.360;9.974;2023-06-22T05:07:49;85205.09;;;-145.17;50.46
32759;BME280;19125;52.360;9.974;2023-06-22T05:10:16;85230.91;;;-145.17;50.32
32759;BME280;19125;52.360;9.974;2023-06-22T05:12:41;85141.63;;;-145.17;50.10
32759;BME280;19125;52.360;9.974;2023-06-22T05:15:07;85147.56;;;-145.17;49.81
32759;BME280;19125;52.360;9.974;2023-06-22T05:17:34;85133.69;;;-145.17;49.75
32759;BME280;19125;52.360;9.974;2023-06-22T05:19:59;85103.94;;;-145.17;49.46
32759;BME280;19125;52.360;9.974;2023-06-22T05:22:25;85074.16;;;-145.17;49.19
32759;BME280;19125;52.360;9.974;2023-06-22T05:24:50;85074.16;;;-145.17;49.05
32759;BME280;19125;52.360;9.974;2023-06-22T05:27:15;85068.22;;;-145.17;48.69
32759;BME280;19125;52.360;9.974;2023-06-22T05:29:41;84998.78;;;-145.17;48.62
32759;BME280;19125;52.360;9.974;2023-06-22T05:32:08;84935.31;;;-145.17;48.07
32759;BME280;19125;52.360;9.974;2023-06-22T05:34:33;84887.69;;;-145.17;47.26
32759;BME280;19125;52.360;9.974;2023-06-22T05:36:58;84830.16;;;-145.17;47.02
32759;BME280;19125;52.360;9.974;2023-06-22T05:39:24;84846.03;;;-145.17;46.78
32759;BME280;19125;52.360;9.974;2023-06-22T05:41:50;84822.22;;;-145.17;46.47
32759;BME280;19125;52.360;9.974;2023-06-22T05:44:16;84774.63;;;-145.17;46.25
32759;BME280;19125;52.360;9.974;2023-06-22T05:46:42;84780.56;;;-145.17;45.98
32759;BME280;19125;52.360;9.974;2023-06-22T05:49:10;84776.59;;;-145.17;45.88
32759;BME280;19125;52.360;9.974;2023-06-22T05:51:36;84794.47;;;-145.17;45.58
32759;BME280;19125;52.360;9.974;2023-06-22T05:54:01;84808.34;;;-145.17;45.56
32759;BME280;19125;52.360;9.974;2023-06-22T05:56:28;84808.34;;;-145.17;45.56
32759;BME280;19125;52.360;9.974;2023-06-22T05:58:53;84826.19;;;-145.17;45.34
32759;BME280;19125;52.360;9.974;2023-06-22T06:01:18;84794.47;;;-145.17;45.23
32759;BME280;19125;52.360;9.974;2023-06-22T06:03:44;84826.19;;;-145.17;45.24
32759;BME280;19125;52.360;9.974;2023-06-22T06:06:12;84782.56;;;-145.17;44.80
32759;BME280;19125;52.360;9.974;2023-06-22T06:08:39;84786.53;;;-145.17;44.86
32759;BME280;19125;52.360;9.974;2023-06-22T06:11:04;84744.88;;;-145.17;44.58
32759;BME280;19125;52.360;9.974;2023-06-22T06:13:29;84707.19;;;-145.17;44.21
32759;BME280;19125;52.360;9.974;2023-06-22T06:15:56;84705.19;;;-145.17;44.03
32759;BME280;19125;52.360;9.974;2023-06-22T06:18:21;84713.13;;;-145.17;43.68
32759;BME280;19125;52.360;9.974;2023-06-22T06:20:46;84611.97;;;-145.17;43.43
32759;BME280;19125;52.360;9.974;2023-06-22T06:23:12;84659.56;;;-145.17;42.98
32759;BME280;19125;52.360;9.974;2023-06-22T06:25:37;84594.13;;;-145.17;42.89
32759;BME280;19125;52.360;9.974;2023-06-22T06:28:03;84530.63;;;-145.17;41.97
32759;BME280;19125;52.360;9.974;2023-06-22T06:30:28;84502.88;;;-145.17;42.21
32759;BME280;19125;52.360;9.974;2023-06-22T06:32:54;84487.00;;;-145.17;41.55
32759;BME280;19125;52.360;9.974;2023-06-22T06:35:19;84459.22;;;-145.17;40.51
32759;BME280;19125;52.360;9.974;2023-06-22T06:37:48;84477.09;;;-145.17;40.01
32759;BME280;19125;52.360;9.974;2023-06-22T06:40:14;84417.56;;;-145.17;40.21
32759;BME280;19125;52.360;9.974;2023-06-22T06:42:45;84373.94;;;-145.17;39.88
32759;BME280;19125;52.360;9.974;2023-06-22T06:45:12;84381.88;;;-145.17;39.64
32759;BME280;19125;52.360;9.974;2023-06-22T06:47:38;84364.03;;;-145.17;39.47
32759;BME280;19125;52.360;9.974;2023-06-22T06:50:05;84350.13;;;-145.17;39.10
32759;BME280;19125;52.360;9.974;2023-06-22T06:52:30;84348.16;;;-145.17;38.97
32759;BME280;19125;52.360;9.974;2023-06-22T06:54:56;84381.88;;;-145.17;38.92
32759;BME280;19125;52.360;9.974;2023-06-22T06:57:21;84350.13;;;-145.17;39.25
32759;BME280;19125;52.360;9.974;2023-06-22T06:59:48;84318.41;;;-145.17;39.18
32759;BME280;19125;52.360;9.974;2023-06-22T07:02:13;84318.41;;;-145.17;39.64
32759;BME280;19125;52.360;9.974;2023-06-22T07:04:39;84302.53;;;-145.17;39.23
32759;BME280;19125;52.360;9.974;2023-06-22T07:07:05;84266.84;;;-145.17;39.29
32759;BME280;19125;52.360;9.974;2023-06-22T07:09:30;84306.50;;;-145.17;38.67
32759;BME280;19125;52.360;9.974;2023-06-22T07:11:56;84296.59;;;-145.17;38.49
32759;BME280;19125;52.360;9.974;2023-06-22T07:14:21;84211.28;;;-145.17;38.13
32759;BME280;19125;52.360;9.974;2023-06-22T07:16:46;84215.25;;;-145.17;37.91
32759;BME280;19125;52.360;9.974;2023-06-22T07:19:12;84219.22;;;-145.17;37.75
32759;BME280;19125;52.360;9.974;2023-06-22T07:21:38;84177.59;;;-145.17;37.16
32759;BME280;19125;52.360;9.974;2023-06-22T07:24:05;84207.34;;;-145.17;37.30
32759;BME280;19125;52.360;9.974;2023-06-22T07:26:31;84241.06;;;-145.17;37.01
32759;BME280;19125;52.360;9.974;2023-06-22T07:28:56;84235.09;;;-145.17;37.03
32759;BME280;19125;52.360;9.974;2023-06-22T07:31:26;84217.25;;;-145.17;36.83
32759;BME280;19125;52.360;9.974;2023-06-22T07:33:52;84191.47;;;-145.17;37.47
32759;BME280;19125;52.360;9.974;2023-06-22T07:36:18;84215.25;;;-145.17;37.80
32759;BME280;19125;52.360;9.974;2023-06-22T07:38:43;84227.16;;;-145.17;37.79
32759;BME280;19125;52.360;9.974;2023-06-22T07:41:09;84203.38;;;-145.17;37.67
32759;BME280;19125;52.360;9.974;2023-06-22T07:43:34;84219.22;;;-145.17;38.01
32759;BME280;19125;52.360;9.974;2023-06-22T07:46:02;84231.13;;;-145.17;37.38
32759;BME280;19125;52.360;9.974;2023-06-22T07:48:28;84235.09;;;-145.17;37.57
32759;BME280;19125;52.360;9.974;2023-06-22T07:50:53;84217.25;;;-145.17;38.19
32759;BME280;19125;52.360;9.974;2023-06-22T07:53:19;84237.09;;;-145.17;38.21
32759;BME280;19125;52.360;9.974;2023-06-22T07:55:44;84282.69;;;-145.17;38.61
32759;BME280;19125;52.360;9.974;2023-06-22T07:58:09;84235.09;;;-145.17;39.13
32759;BME280;19125;52.360;9.974;2023-06-22T08:00:35;84314.44;;;-145.17;38.82
32759;BME280;19125;52.360;9.974;2023-06-22T08:03:00;84294.59;;;-145.17;38.80
32759;BME280;19125;52.360;9.974;2023-06-22T08:05:28;84306.50;;;-145.17;38.93
32759;BME280;19125;52.360;9.974;2023-06-22T08:07:54;84296.59;;;-145.17;39.40
32759;BME280;19125;52.360;9.974;2023-06-22T08:10:20;84312.44;;;-145.17;39.47
32759;BME280;19125;52.360;9.974;2023-06-22T08:12:46;84254.94;;;-145.17;39.31
32759;BME280;19125;52.360;9.974;2023-06-22T08:15:11;84264.84;;;-145.17;39.52
32759;BME280;19125;52.360;9.974;2023-06-22T08:17:40;84169.66;;;-145.17;38.97
32759;BME280;19125;52.360;9.974;2023-06-22T08:20:06;84131.97;;;-145.17;38.46
32759;BME280;19125;52.360;9.974;2023-06-22T08:22:35;84122.03;;;-145.17;38.17
32759;BME280;19125;52.360;9.974;2023-06-22T08:25:02;84122.03;;;-145.17;37.72
32759;BME280;19125;52.360;9.974;2023-06-22T08:27:29;84092.28;;;-145.17;38.09
32759;BME280;19125;52.360;9.974;2023-06-22T08:29:56;84016.94;;;-145.17;37.75
32759;BME280;19125;52.360;9.974;2023-06-22T08:32:24;84052.63;;;-145.17;36.99
32759;BME280;19125;52.360;9.974;2023-06-22T08:34:52;84018.91;;;-145.17;36.85
32759;BME280;19125;52.360;9.974;2023-06-22T08:37:17;84012.97;;;-145.17;37.04
32759;BME280;19125;52.360;9.974;2023-06-22T08:39:42;84012.97;;;-145.17;37.13
32759;BME280;19125;52.360;9.974;2023-06-22T08:42:08;84080.41;;;-145.17;36.85
32759;BME280;19125;52.360;9.974;2023-06-22T08:44:33;84024.88;;;-145.17;36.97
32759;BME280;19125;52.360;9.974;2023-06-22T08:46:59;84005.03;;;-145.17;37.13
32759;BME280;19125;52.360;9.974;2023-06-22T08:49:24;83997.09;;;-145.17;37.35
32759;BME280;19125;52.360;9.974;2023-06-22T08:51:49;84024.88;;;-145.17;37.68
32759;BME280;19125;52.360;9.974;2023-06-22T08:54:17;84016.94;;;-145.17;37.74
32759;BME280;19125;52.360;9.974;2023-06-22T08:56:42;84001.06;;;-145.17;37.71
32759;BME280;19125;52.360;9.974;2023-06-22T08:59:09;84016.94;;;-145.17;37.84
32759;BME280;19125;52.360;9.974;2023-06-22T09:01:34;84072.47;;;-145.17;37.77
32759;BME280;19125;52.360;9.974;2023-06-22T09:04:00;84102.22;;;-145.17;37.82
32759;BME280;19125;52.360;9.974;2023-06-22T09:06:25;84056.59;;;-145.17;37.93
32759;BME280;19125;52.360;9.974;2023-06-22T09:08:51;84024.88;;;-145.17;38.00
32759;BME280;19125;52.360;9.974;2023-06-22T09:11:16;83985.19;;;-145.17;37.55
32759;BME280;19125;52.360;9.974;2023-06-22T09:13:41;84014.94;;;-145.17;37.42
32759;BME280;19125;52.360;9.974;2023-06-22T09:16:07;83937.59;;;-145.17;37.20
32759;BME280;19125;52.360;9.974;2023-06-22T09:18:35;83891.97;;;-145.17;36.95
32759;BME280;19125;52.360;9.974;2023-06-22T09:21:01;83874.13;;;-145.17;36.74
32759;BME280;19125;52.360;9.974;2023-06-22T09:23:27;83866.19;;;-145.17;36.87
32759;BME280;19125;52.360;9.974;2023-06-22T09:25:52;83753.16;;;-145.17;35.97
32759;BME280;19125;52.360;9.974;2023-06-22T09:28:18;83757.13;;;-145.17;35.88
32759;BME280;19125;52.360;9.974;2023-06-22T09:30:43;83798.78;;;-145.17;35.91
32759;BME280;19125;52.360;9.974;2023-06-22T09:33:11;83715.47;;;-145.17;35.73
32759;BME280;19125;52.360;9.974;2023-06-22T09:35:37;83765.06;;;-145.17;35.70
32759;BME280;19125;52.360;9.974;2023-06-22T09:38:02;83776.97;;;-145.17;35.54
32759;BME280;19125;52.360;9.974;2023-06-22T09:40:28;83774.97;;;-145.17;35.82
32759;BME280;19125;52.360;9.974;2023-06-22T09:42:53;83745.22;;;-145.17;35.49
32759;BME280;19125;52.360;9.974;2023-06-22T09:45:18;83745.22;;;-145.17;35.62
32759;BME280;19125;52.360;9.974;2023-06-22T09:47:44;83776.97;;;-145.17;35.46
32759;BME280;19125;52.360;9.974;2023-06-22T09:50:10;83725.41;;;-145.17;35.65
32759;BME280;19125;52.360;9.974;2023-06-22T09:52:36;83735.31;;;-145.17;35.82
32759;BME280;19125;52.360;9.974;2023-06-22T09:55:01;83769.03;;;-145.17;35.26
32759;BME280;19125;52.360;9.974;2023-06-22T09:57:29;83743.25;;;-145.17;35.72
32759;BME280;19125;52.360;9.974;2023-06-22T09:59:54;83723.41;;;-145.17;35.35
32759;BME280;19125;52.360;9.974;2023-06-22T10:02:20;83699.63;;;-145.17;35.58
32759;BME280;19125;52.360;9.974;2023-06-22T10:04:45;83683.75;;;-145.17;35.86
32759;BME280;19125;52.360;9.974;2023-06-22T10:07:11;83648.06;;;-145.17;35.64
32759;BME280;19125;52.360;9.974;2023-06-22T10:09:36;83616.31;;;-145.17;34.84
32759;BME280;19125;52.360;9.974;2023-06-22T10:12:01;83497.34;;;-145.17;34.35
32759;BME280;19125;52.360;9.974;2023-06-22T10:14:27;83475.53;;;-145.17;33.81
32759;BME280;19125;52.360;9.974;2023-06-22T10:16:54;83469.56;;;-145.17;33.82
32759;BME280;19125;52.360;9.974;2023-06-22T10:19:20;83481.47;;;-145.17;33.57
32759;BME280;19125;52.360;9.974;2023-06-22T10:21:45;83414.03;;;-145.17;33.09
32759;BME280;19125;52.360;9.974;2023-06-22T10:24:10;83388.28;;;-145.17;33.29
32759;BME280;19125;52.360;9.974;2023-06-22T10:26:36;83354.56;;;-145.17;33.37
32759;BME280;19125;52.360;9.974;2023-06-22T10:29:03;83398.19;;;-145.17;33.17
32759;BME280;19125;52.360;9.974;2023-06-22T10:31:29;83455.69;;;-145.17;33.17
32759;BME280;19125;52.360;9.974;2023-06-22T10:33:55;83455.69;;;-145.17;33.16
32759;BME280;19125;52.360;9.974;2023-06-22T10:36:21;83489.41;;;-145.17;33.26
32759;BME280;19125;52.360;9.974;2023-06-22T10:38:47;83477.50;;;-145.17;33.89
32759;BME280;19125;52.360;9.974;2023-06-22T10:41:13;83538.97;;;-145.17;34.12
32759;BME280;19125;52.360;9.974;2023-06-22T10:43:39;83499.31;;;-145.17;34.03
32759;BME280;19125;52.360;9.974;2023-06-22T10:46:04;83572.69;;;-145.17;34.01
32759;BME280;19125;52.360;9.974;2023-06-22T10:48:29;83489.41;;;-145.17;33.92
32759;BME280;19125;52.360;9.974;2023-06-22T10:50:55;83463.63;;;-145.17;34.22
32759;BME280;19125;52.360;9.974;2023-06-22T10:53:20;83431.91;;;-145.17;33.66
32759;BME280;19125;52.360;9.974;2023-06-22T10:55:46;83388.28;;;-145.17;33.71
32759;BME280;19125;52.360;9.974;2023-06-22T10:58:11;83388.28;;;-145.17;33.31
32759;BME280;19125;52.360;9.974;2023-06-22T11:00:37;83406.13;;;-145.17;33.11
32759;BME280;19125;52.360;9.974;2023-06-22T11:03:02;83372.41;;;-145.17;32.93
32759;BME280;19125;52.360;9.974;2023-06-22T11:05:31;83418.00;;;-145.17;33.36
32759;BME280;19125;52.360;9.974;2023-06-22T11:07:59;83398.19;;;-145.17;33.31
32759;BME280;19125;52.360;9.974;2023-06-22T11:10:25;83465.59;;;-145.17;33.50
32759;BME280;19125;52.360;9.974;2023-06-22T11:12:52;83437.84;;;-145.17;33.35
32759;BME280;19125;52.360;9.974;2023-06-22T11:15:18;83342.66;;;-145.17;33.18
32759;BME280;19125;52.360;9.974;2023-06-22T11:17:43;83356.53;;;-145.17;33.36
32759;BME280;19125;52.360;9.974;2023-06-22T11:20:09;83285.16;;;-145.17;32.99
32759;BME280;19125;52.360;9.974;2023-06-22T11:22:36;83308.94;;;-145.17;32.58
32759;BME280;19125;52.360;9.974;2023-06-22T11:25:02;83328.78;;;-145.17;33.17
32759;BME280;19125;52.360;9.974;2023-06-22T11:27:27;83374.38;;;-145.17;33.30
32759;BME280;19125;52.360;9.974;2023-06-22T11:29:53;83267.31;;;-145.17;33.38
32759;BME280;19125;52.360;9.974;2023-06-22T11:32:18;83318.88;;;-145.17;33.03
32759;BME280;19125;52.360;9.974;2023-06-22T11:34:44;83318.88;;;-145.17;33.19
32759;BME280;19125;52.360;9.974;2023-06-22T11:37:09;83368.44;;;-145.17;33.21
32759;BME280;19125;52.360;9.974;2023-06-22T11:39:34;83338.69;;;-145.17;33.15
32759;BME280;19125;52.360;9.974;2023-06-22T11:42:00;83324.81;;;-145.17;33.50
32759;BME280;19125;52.360;9.974;2023-06-22T11:44:25;83283.16;;;-145.17;33.15
32759;BME280;19125;52.360;9.974;2023-06-22T11:46:51;83148.34;;;-145.17;33.11
32759;BME280;19125;52.360;9.974;2023-06-22T11:49:16;83199.88;;;-145.17;32.35
32759;BME280;19125;52.360;9.974;2023-06-22T11:51:42;83116.59;;;-145.17;32.01
32759;BME280;19125;52.360;9.974;2023-06-22T11:54:08;83053.16;;;-145.17;32.12
32759;BME280;19125;52.360;9.974;2023-06-22T11:56:34;83140.41;;;-145.17;32.07
32759;BME280;19125;52.360;9.974;2023-06-22T11:59:00;83124.53;;;-145.17;31.96
32759;BME280;19125;52.360;9.974;2023-06-22T12:01:26;83134.44;;;-145.17;32.01
32759;BME280;19125;52.360;9.974;2023-06-22T12:03:51;83120.56;;;-145.17;32.06
32759;BME280;19125;52.360;9.974;2023-06-22T12:06:18;83166.19;;;-145.17;32.06
32759;BME280;19125;52.360;9.974;2023-06-22T12:08:43;83118.59;;;-145.17;31.97
32759;BME280;19125;52.360;9.974;2023-06-22T12:11:08;83063.06;;;-145.17;31.94
32759;BME280;19125;52.360;9.974;2023-06-22T12:13:34;83132.47;;;-145.17;31.96
32759;BME280;19125;52.360;9.974;2023-06-22T12:15:59;83201.88;;;-145.17;32.43
32759;BME280;19125;52.360;9.974;2023-06-22T12:18:25;83303.00;;;-145.17;32.67
32759;BME280;19125;52.360;9.974;2023-06-22T12:20:50;83184.03;;;-145.17;32.50
32759;BME280;19125;52.360;9.974;2023-06-22T12:23:15;83199.88;;;-145.17;31.78
32759;BME280;19125;52.360;9.974;2023-06-22T12:25:41;83160.22;;;-145.17;31.52
32759;BME280;19125;52.360;9.974;2023-06-22T12:28:06;83166.19;;;-145.17;31.81
32759;BME280;19125;52.360;9.974;2023-06-22T12:30:32;83076.94;;;-145.17;31.14
32759;BME280;19125;52.360;9.974;2023-06-22T12:32:58;83098.75;;;-145.17;31.05
32759;BME280;19125;52.360;9.974;2023-06-22T12:35:24;83035.31;;;-145.17;30.90
32759;BME280;19125;52.360;9.974;2023-06-22T12:37:49;83055.13;;;-145.17;31.01